Time;durP1;ratioP1;P1;durP2;ratioP2;P2;SDS_P1;SDS_P2;PMS_P1;PMS_P2;Temp;Humidity;BMP_temperature;BMP_pressure;BME280_temperature;BME280_humidity;BME280_pressure;Samples;Min_cycle;Max_cycle;Signal;HPM_P1;HPM_P2
2022/10/04 00:01:04;;;;;;;14.00;2.70;;;13.80;99.90;;;;;;5138920;27;20435;-68
2022/10/04 00:03:35;;;;;;;9.30;2.50;;;13.80;99.90;;;;;;5138843;27;20507;-68
2022/10/04 00:06:02;;;;;;;9.17;2.50;;;13.90;99.90;;;;;;5139234;27;20440;-68
2022/10/04 00:08:36;;;;;;;7.97;2.23;;;13.80;99.90;;;;;;5138906;27;20493;-68
2022/10/04 00:11:13;;;;;;;8.27;2.50;;;13.90;99.90;;;;;;5138952;27;20473;-68
2022/10/04 00:13:49;;;;;;;8.97;2.20;;;13.80;99.90;;;;;;5138623;27;20518;-68
2022/10/04 00:16:23;;;;;;;7.83;2.37;;;13.80;99.90;;;;;;5139135;27;20861;-68
2022/10/04 00:19:01;;;;;;;10.83;2.57;;;13.90;99.90;;;;;;5138562;27;20485;-68
2022/10/04 00:22:12;;;;;;;5.90;2.30;;;13.90;99.90;;;;;;5138783;27;20809;-67
2022/10/04 00:25:17;;;;;;;9.30;2.53;;;13.80;99.90;;;;;;5138211;27;20450;-67
2022/10/04 00:28:26;;;;;;;9.63;2.27;;;13.80;99.90;;;;;;5138734;27;20914;-69
2022/10/04 00:31:17;;;;;;;7.93;2.47;;;13.80;99.90;;;;;;5138491;27;20464;-69
2022/10/04 00:33:45;;;;;;;7.90;2.10;;;13.80;99.90;;;;;;5136852;27;20474;-67
2022/10/04 00:36:40;;;;;;;11.97;3.63;;;13.80;99.90;;;;;;5138248;27;20927;-68
2022/10/04 09:15:24;;;;;;;7.83;3.70;;;15.10;99.90;;;;;;5038293;28;20648;-67
2022/10/04 09:17:59;;;;;;;7.30;3.77;;;15.20;99.90;;;;;;5035409;28;20975;-68
2022/10/04 09:20:44;;;;;;;5.57;3.80;;;15.40;99.90;;;;;;5031994;28;20440;-68
2022/10/04 09:23:48;;;;;;;6.13;3.50;;;15.60;99.90;;;;;;5033688;28;20437;-68
2022/10/04 09:26:22;;;;;;;7.80;3.77;;;15.80;99.90;;;;;;5034135;28;20534;-68
2022/10/04 09:29:16;;;;;;;6.57;3.20;;;15.70;99.90;;;;;;5034748;28;20848;-67
2022/10/04 09:32:32;;;;;;;6.93;3.90;;;15.60;99.90;;;;;;5036061;28;20440;-67
2022/10/04 09:35:30;;;;;;;6.43;3.40;;;15.60;99.90;;;;;;5034722;28;20579;-67
2022/10/04 09:38:19;;;;;;;6.53;3.17;;;15.60;99.90;;;;;;5034357;28;20461;-67
2022/10/04 09:41:28;;;;;;;5.73;3.30;;;15.60;99.90;;;;;;5034092;28;20566;-67
2022/10/04 09:44:35;;;;;;;5.60;3.40;;;15.50;99.90;;;;;;4988595;28;20452;-67
2022/10/04 09:47:21;;;;;;;3.37;2.80;;;15.60;99.90;;;;;;5028546;28;20838;-68
2022/10/04 09:50:34;;;;;;;3.80;2.60;;;15.70;99.90;;;;;;5034455;28;20440;-68
2022/10/04 09:53:16;;;;;;;6.80;2.57;;;15.60;99.90;;;;;;5006865;28;20551;-67
2022/10/04 09:55:58;;;;;;;3.30;2.63;;;15.70;99.90;;;;;;5034997;28;20538;-67
2022/10/04 09:58:45;;;;;;;7.37;3.00;;;15.70;99.90;;;;;;5033186;28;20463;-68
2022/10/04 10:01:18;;;;;;;15.17;3.27;;;15.90;99.90;;;;;;5032776;28;20523;-69
2022/10/04 10:04:17;;;;;;;4.57;2.63;;;16.00;99.90;;;;;;5035185;28;20475;-69
2022/10/04 10:06:58;;;;;;;3.57;2.50;;;16.10;99.90;;;;;;5018654;28;20893;-69
2022/10/04 10:15:33;;;;;;;2.73;1.70;;;16.70;99.90;;;;;;5033515;28;20475;-69
2022/10/04 10:18:10;;;;;;;4.10;2.20;;;16.70;99.90;;;;;;5035856;28;20436;-68
2022/10/04 10:21:13;;;;;;;7.60;1.90;;;16.70;99.90;;;;;;5032716;28;20535;-69
2022/10/04 10:24:24;;;;;;;3.03;1.63;;;16.70;99.90;;;;;;5034173;28;20436;-68
2022/10/04 10:27:07;;;;;;;5.73;1.60;;;16.60;99.90;;;;;;4990413;28;20457;-68
2022/10/04 10:30:06;;;;;;;2.97;1.40;;;16.50;99.90;;;;;;5019009;28;20836;-68
2022/10/04 10:33:00;;;;;;;6.17;2.70;;;16.60;99.90;;;;;;5019265;28;20469;-68
2022/10/04 10:35:41;;;;;;;5.33;1.90;;;16.60;99.90;;;;;;5019255;28;20437;-68
2022/10/04 10:38:26;;;;;;;4.57;2.60;;;16.60;99.90;;;;;;5018726;28;20445;-68
2022/10/04 10:41:40;;;;;;;3.30;2.00;;;16.50;99.90;;;;;;5018284;28;20457;-69
2022/10/04 10:44:49;;;;;;;7.13;2.17;;;16.50;99.90;;;;;;4958914;28;20536;-68
2022/10/04 10:47:30;;;;;;;7.17;2.30;;;16.70;99.90;;;;;;5007999;28;20457;-68
2022/10/04 10:50:16;;;;;;;5.93;2.93;;;16.70;99.90;;;;;;5018055;28;20814;-69
2022/10/04 10:53:28;;;;;;;5.47;2.23;;;16.90;99.90;;;;;;5017363;28;20459;-68
2022/10/04 10:56:23;;;;;;;9.57;2.70;;;17.10;99.90;;;;;;5018264;28;20441;-69
2022/10/04 10:59:27;;;;;;;7.67;2.43;;;17.00;99.90;;;;;;5017144;28;20851;-68
2022/10/04 11:02:21;;;;;;;4.23;2.10;;;17.00;99.90;;;;;;5017926;28;20527;-68
2022/10/04 11:04:57;;;;;;;3.80;2.33;;;17.10;99.90;;;;;;5018007;28;20440;-69
2022/10/04 11:07:49;;;;;;;6.40;2.50;;;17.20;99.90;;;;;;5018275;28;20833;-68
2022/10/04 11:10:58;;;;;;;6.80;2.60;;;17.10;99.90;;;;;;5018489;28;20894;-67
2022/10/04 11:14:10;;;;;;;5.57;2.60;;;16.90;99.90;;;;;;5019203;28;20531;-68
2022/10/04 11:17:08;;;;;;;2.80;2.27;;;17.00;99.90;;;;;;5018311;28;20433;-67
2022/10/04 11:20:10;;;;;;;5.13;2.40;;;17.20;99.90;;;;;;5018271;28;20785;-67
2022/10/04 11:23:22;;;;;;;6.70;2.67;;;17.40;99.90;;;;;;5018729;28;20440;-68
2022/10/04 11:26:28;;;;;;;5.57;2.70;;;17.40;99.90;;;;;;5019006;28;20449;-67
2022/10/04 11:29:08;;;;;;;7.67;3.07;;;17.30;99.90;;;;;;4994720;28;20461;-68
2022/10/04 11:31:57;;;;;;;6.37;2.73;;;17.30;99.90;;;;;;5018502;28;20886;-68
2022/10/04 11:35:01;;;;;;;8.90;2.83;;;17.20;99.90;;;;;;5019278;28;20472;-69
2022/10/04 11:37:47;;;;;;;6.67;2.60;;;17.20;99.90;;;;;;5017935;28;20444;-69
2022/10/04 11:40:32;;;;;;;4.20;2.30;;;17.30;99.90;;;;;;5019435;28;20532;-69
2022/10/04 11:43:20;;;;;;;4.07;2.43;;;17.30;99.90;;;;;;5018829;28;20516;-67
2022/10/04 11:46:17;;;;;;;5.60;2.70;;;17.40;99.90;;;;;;5017089;28;20892;-69
2022/10/04 11:49:03;;;;;;;9.73;3.13;;;17.60;99.90;;;;;;5019177;28;20858;-72
2022/10/04 11:51:57;;;;;;;8.80;2.60;;;17.80;99.90;;;;;;5016659;28;20441;-69
2022/10/04 11:54:48;;;;;;;11.03;2.83;;;17.90;99.90;;;;;;5016120;28;20551;-69
2022/10/04 11:57:26;;;;;;;6.43;2.80;;;18.10;99.90;;;;;;5016177;28;20437;-68
2022/10/04 12:00:01;;;;;;;11.47;2.50;;;18.40;99.90;;;;;;5018084;28;20477;-68
2022/10/04 12:03:12;;;;;;;5.63;1.90;;;18.60;99.90;;;;;;5018151;28;20449;-68
2022/10/04 12:06:02;;;;;;;6.80;1.87;;;18.50;99.90;;;;;;4958050;29;20456;-68
2022/10/04 12:08:47;;;;;;;5.43;2.00;;;18.30;99.90;;;;;;5011864;28;20805;-68
2022/10/04 12:14:53;;;;;;;4.73;2.30;;;17.70;99.90;;;;;;5017045;28;20930;-68
2022/10/04 12:18:08;;;;;;;4.60;2.00;;;17.70;99.90;;;;;;5017375;28;20508;-69
2022/10/04 12:20:55;;;;;;;3.30;1.87;;;18.50;99.90;;;;;;4974418;28;20443;-68
2022/10/04 12:23:55;;;;;;;9.30;2.20;;;19.80;99.90;;;;;;4974992;28;20518;-69
2022/10/04 12:27:07;;;;;;;6.97;2.30;;;20.80;99.90;;;;;;5011660;28;20475;-68
2022/10/04 12:30:07;;;;;;;9.70;1.77;;;21.40;99.90;;;;;;5017783;28;20493;-69
2022/10/04 12:32:38;;;;;;;6.73;2.47;;;21.70;99.90;;;;;;5015444;28;20460;-68
2022/10/04 12:35:21;;;;;;;8.17;2.10;;;21.70;99.90;;;;;;5015351;28;20556;-68
2022/10/04 12:38:08;;;;;;;2.97;1.90;;;21.50;99.90;;;;;;5015496;28;20502;-71
2022/10/04 12:40:44;;;;;;;5.03;1.93;;;21.60;99.90;;;;;;5015095;28;20455;-70
2022/10/04 12:43:22;;;;;;;3.10;1.50;;;21.30;99.90;;;;;;5015830;28;20455;-69
2022/10/04 12:46:01;;;;;;;7.60;2.00;;;21.10;99.90;;;;;;5015528;28;20441;-69
2022/10/04 12:48:44;;;;;;;5.70;1.90;;;20.80;99.90;;;;;;5014798;28;20438;-69
2022/10/04 12:51:25;;;;;;;3.73;2.20;;;20.40;99.90;;;;;;5015283;28;20543;-73
2022/10/04 12:54:00;;;;;;;7.23;2.40;;;20.00;99.90;;;;;;5014259;28;20445;-72
2022/10/04 12:56:45;;;;;;;7.50;2.00;;;19.80;99.90;;;;;;5014527;28;20449;-73
2022/10/04 12:59:38;;;;;;;8.07;1.90;;;19.80;99.90;;;;;;5014248;28;20441;-73
2022/10/04 13:02:20;;;;;;;6.87;2.53;;;19.70;99.90;;;;;;5014421;28;20445;-73
2022/10/04 13:04:52;;;;;;;4.20;2.50;;;19.70;99.90;;;;;;5014367;28;20447;-72
2022/10/04 13:07:42;;;;;;;5.27;2.30;;;19.50;99.90;;;;;;5014622;28;20446;-72
2022/10/04 13:10:31;;;;;;;7.87;2.10;;;19.40;99.90;;;;;;5013997;28;20445;-73
2022/10/04 13:13:42;;;;;;;9.93;2.10;;;19.50;99.90;;;;;;5015192;28;20739;-73
2022/10/04 13:16:15;;;;;;;8.20;2.27;;;19.50;99.90;;;;;;5014144;28;20477;-72
2022/10/04 13:18:50;;;;;;;6.53;2.83;;;19.50;99.90;;;;;;5014228;28;20480;-72
2022/10/04 13:21:24;;;;;;;8.53;3.00;;;19.40;99.90;;;;;;5014287;28;20914;-72
2022/10/04 13:24:02;;;;;;;8.13;2.70;;;19.30;99.90;;;;;;5014191;28;20540;-72
2022/10/04 13:26:37;;;;;;;6.37;1.77;;;19.10;99.90;;;;;;5014327;28;20444;-72
2022/10/04 13:29:14;;;;;;;4.80;2.10;;;19.20;99.90;;;;;;5014544;28;20455;-72
2022/10/04 13:31:47;;;;;;;4.60;2.10;;;19.40;99.90;;;;;;5014285;28;20915;-72
2022/10/04 13:34:26;;;;;;;5.73;1.67;;;19.50;99.90;;;;;;5014627;28;20519;-73
2022/10/04 13:37:16;;;;;;;5.47;1.80;;;19.70;99.90;;;;;;5014408;28;20724;-73
2022/10/04 13:39:54;;;;;;;6.33;1.97;;;20.60;99.90;;;;;;5011989;28;20465;-73
2022/10/04 13:42:59;;;;;;;5.97;1.93;;;21.90;99.90;;;;;;5014530;28;20455;-72
2022/10/04 13:45:39;;;;;;;5.00;1.43;;;22.60;99.90;;;;;;5014548;28;20774;-72
2022/10/04 13:48:29;;;;;;;4.77;1.90;;;22.50;99.90;;;;;;5015123;28;20528;-72
2022/10/04 13:51:35;;;;;;;5.60;1.90;;;22.00;99.90;;;;;;5014951;28;20509;-72
2022/10/04 13:57:06;;;;;;;5.03;1.60;;;21.10;99.90;;;;;;5014669;28;20437;-71
2022/10/04 13:59:41;;;;;;;6.97;1.50;;;20.90;99.90;;;;;;5014082;28;20501;-71
2022/10/04 14:02:37;;;;;;;2.13;1.47;;;21.00;99.90;;;;;;5025760;28;20441;-67
2022/10/04 14:09:01;;;;;;;3.93;1.43;;;21.30;99.90;;;;;;5025605;28;20412;-69
2022/10/04 14:11:57;;;;;;;4.27;1.40;;;21.60;99.90;;;;;;5023760;28;20548;-70
2022/10/04 14:14:46;;;;;;;6.53;1.77;;;22.50;99.90;;;;;;5022497;28;20495;-68
2022/10/04 14:17:56;;;;;;;5.57;1.83;;;23.20;99.90;;;;;;5022328;28;20448;-70
2022/10/04 14:20:52;;;;;;;5.50;1.70;;;24.00;99.90;;;;;;5022545;28;20436;-69
2022/10/04 14:23:47;;;;;;;6.30;1.80;;;24.50;99.90;;;;;;5021098;28;20770;-69
2022/10/04 14:26:51;;;;;;;4.10;1.60;;;24.70;99.90;;;;;;5022525;28;20487;-69
2022/10/04 14:29:45;;;;;;;4.60;1.43;;;24.90;97.40;;;;;;4995431;28;20449;-70
2022/10/04 14:32:44;;;;;;;2.13;1.27;;;24.70;96.00;;;;;;5019263;28;20437;-69
2022/10/04 14:35:20;;;;;;;4.40;1.20;;;24.50;95.80;;;;;;5019453;28;20907;-68
2022/10/04 14:38:32;;;;;;;3.73;1.20;;;24.40;95.80;;;;;;4999163;28;20548;-69
2022/10/04 14:41:44;;;;;;;3.63;1.70;;;24.00;94.20;;;;;;4998630;28;20476;-69
2022/10/04 14:44:36;;;;;;;3.20;1.10;;;24.00;96.00;;;;;;4998491;28;20508;-69
2022/10/04 14:47:27;;;;;;;4.40;1.17;;;24.20;96.10;;;;;;4998242;28;20524;-69
2022/10/04 14:50:18;;;;;;;2.00;1.17;;;24.60;96.80;;;;;;4998597;28;20446;-69
2022/10/04 14:52:58;;;;;;;2.63;1.13;;;24.60;94.60;;;;;;4999924;28;20478;-69
2022/10/04 14:55:57;;;;;;;2.90;1.20;;;24.30;94.30;;;;;;4999234;28;20954;-69
2022/10/04 14:58:35;;;;;;;4.30;1.33;;;24.00;95.80;;;;;;5000971;28;20529;-68
2022/10/04 15:01:14;;;;;;;5.67;1.20;;;24.10;96.30;;;;;;4998856;28;20442;-70
2022/10/04 15:03:50;;;;;;;6.97;1.17;;;24.40;95.80;;;;;;4999044;28;20538;-69
2022/10/04 15:06:26;;;;;;;4.83;1.57;;;24.60;95.40;;;;;;4998744;28;20448;-70
2022/10/04 15:09:25;;;;;;;8.90;1.60;;;24.50;95.00;;;;;;4998544;28;20521;-70
2022/10/04 15:12:00;;;;;;;3.10;1.10;;;24.20;95.90;;;;;;4998899;28;20457;-69
2022/10/04 15:14:36;;;;;;;5.60;1.60;;;23.70;96.50;;;;;;5012347;28;20496;-67
2022/10/04 15:17:10;;;;;;;5.70;2.37;;;23.50;98.00;;;;;;5016470;28;20445;-69
2022/10/04 15:19:59;;;;;;;5.70;1.80;;;23.30;98.90;;;;;;5016367;28;20457;-68
2022/10/04 15:22:29;;;;;;;4.43;1.60;;;23.30;99.90;;;;;;5009534;28;20506;-69
2022/10/04 15:24:58;;;;;;;4.03;1.83;;;23.50;99.90;;;;;;5017597;28;20536;-69
2022/10/04 15:27:55;;;;;;;3.10;1.20;;;23.30;99.40;;;;;;5017100;28;20504;-68
2022/10/04 15:30:34;;;;;;;4.17;1.80;;;22.60;99.90;;;;;;5016549;28;20447;-68
2022/10/04 15:33:19;;;;;;;2.77;1.80;;;22.20;99.90;;;;;;5016908;28;20445;-69
2022/10/04 15:36:06;;;;;;;4.03;1.60;;;22.00;99.90;;;;;;5017871;28;20479;-70
2022/10/04 15:38:38;;;;;;;3.80;1.70;;;21.70;99.90;;;;;;5019032;28;20717;-69
2022/10/04 15:41:16;;;;;;;2.47;1.27;;;21.40;99.90;;;;;;5017747;28;20908;-69
2022/10/04 15:43:49;;;;;;;2.90;1.30;;;21.10;99.90;;;;;;5018347;28;20507;-69
2022/10/04 15:46:41;;;;;;;2.53;1.20;;;20.80;99.90;;;;;;5018564;28;20441;-69
2022/10/04 15:49:28;;;;;;;3.63;1.47;;;20.50;99.90;;;;;;5019420;28;20536;-71
2022/10/04 15:52:14;;;;;;;2.07;1.60;;;20.10;99.90;;;;;;5020365;28;20480;-70
2022/10/04 15:55:06;;;;;;;3.60;1.77;;;19.80;99.90;;;;;;5018702;28;20437;-71
2022/10/04 15:57:50;;;;;;;8.73;2.00;;;19.60;99.90;;;;;;5018412;28;20441;-69
2022/10/04 16:00:24;;;;;;;2.63;1.40;;;19.50;99.90;;;;;;5018123;28;20513;-69
2022/10/04 16:03:15;;;;;;;3.40;1.40;;;19.60;99.90;;;;;;5017407;28;20457;-70
2022/10/04 16:05:46;;;;;;;4.50;1.67;;;19.70;99.90;;;;;;5018047;28;20746;-70
2022/10/04 16:08:36;;;;;;;5.93;1.90;;;19.70;99.90;;;;;;5018665;28;20445;-70
2022/10/04 16:11:30;;;;;;;3.90;1.50;;;19.60;99.90;;;;;;5019061;28;20545;-70
2022/10/04 16:14:34;;;;;;;4.57;1.57;;;19.30;99.90;;;;;;5017902;28;20519;-69
2022/10/04 16:17:23;;;;;;;6.53;1.20;;;19.10;99.90;;;;;;5014147;28;20464;-69
2022/10/04 16:20:03;;;;;;;3.10;1.50;;;18.80;99.90;;;;;;5018668;28;20451;-69
2022/10/04 16:22:32;;;;;;;3.03;1.40;;;18.50;99.90;;;;;;5016642;28;20737;-69
2022/10/04 16:25:19;;;;;;;4.50;1.67;;;18.30;99.90;;;;;;5017151;28;20463;-69
2022/10/04 16:28:03;;;;;;;4.93;1.60;;;18.10;99.90;;;;;;5017979;28;20520;-70
2022/10/04 16:30:36;;;;;;;5.87;1.50;;;17.90;99.90;;;;;;5018300;28;20818;-69
2022/10/04 16:33:21;;;;;;;3.03;1.27;;;17.80;99.90;;;;;;5017656;28;20445;-69
2022/10/04 16:36:00;;;;;;;8.13;2.10;;;17.60;99.90;;;;;;5016371;28;20523;-69
2022/10/04 16:38:33;;;;;;;6.53;1.63;;;17.50;99.90;;;;;;5017453;28;20831;-70
2022/10/04 16:41:11;;;;;;;6.13;2.27;;;17.40;99.90;;;;;;5018137;28;20456;-69
2022/10/04 16:43:48;;;;;;;5.47;2.53;;;17.30;99.90;;;;;;5017422;28;20532;-68
2022/10/04 16:46:25;;;;;;;4.80;2.00;;;17.30;99.90;;;;;;5016804;28;20444;-69
2022/10/04 16:48:57;;;;;;;6.33;2.50;;;17.20;99.90;;;;;;5017278;28;20529;-69
2022/10/04 16:51:44;;;;;;;7.50;4.27;;;17.10;99.90;;;;;;5016692;28;20874;-70
2022/10/04 16:54:35;;;;;;;4.10;2.57;;;17.10;99.90;;;;;;5017450;28;20451;-69
2022/10/04 16:57:23;;;;;;;3.63;2.50;;;17.00;99.90;;;;;;4987274;28;20518;-70
2022/10/04 16:59:53;;;;;;;4.73;2.53;;;16.90;99.90;;;;;;5017063;28;20472;-69
2022/10/04 17:02:56;;;;;;;5.37;2.30;;;16.90;99.90;;;;;;5017269;28;20476;-69
2022/10/04 17:06:10;;;;;;;5.50;2.60;;;16.80;99.90;;;;;;5018631;28;20441;-70
2022/10/04 17:09:03;;;;;;;8.57;3.20;;;16.70;99.90;;;;;;5018543;28;20463;-70
2022/10/04 17:11:43;;;;;;;6.33;3.07;;;16.70;99.90;;;;;;5016409;28;20463;-70
2022/10/04 17:14:48;;;;;;;5.03;2.80;;;16.60;99.90;;;;;;5015982;28;20575;-70
2022/10/04 17:17:23;;;;;;;8.83;3.03;;;16.60;99.90;;;;;;5013166;28;20580;-69
2022/10/04 17:19:55;;;;;;;8.23;3.33;;;16.50;99.90;;;;;;5015189;28;20445;-71
2022/10/04 17:22:37;;;;;;;6.80;2.80;;;16.50;99.90;;;;;;5015740;28;20449;-69
2022/10/04 17:25:19;;;;;;;9.93;3.70;;;16.40;99.90;;;;;;5015291;28;20909;-70
2022/10/04 17:27:51;;;;;;;7.93;3.87;;;16.40;99.90;;;;;;5014939;28;20448;-70
2022/10/04 17:30:21;;;;;;;6.07;3.37;;;16.40;99.90;;;;;;5015131;28;20441;-71
2022/10/04 17:33:20;;;;;;;7.90;4.20;;;16.30;99.90;;;;;;5014743;28;20913;-70
2022/10/04 17:36:24;;;;;;;5.13;3.60;;;16.30;99.90;;;;;;4996634;28;20569;-70
2022/10/04 17:39:17;;;;;;;5.70;3.40;;;16.30;99.90;;;;;;5018702;28;20445;-70
2022/10/04 17:41:57;;;;;;;5.00;4.33;;;16.20;99.90;;;;;;5018802;28;20961;-69
2022/10/04 17:44:41;;;;;;;6.50;3.50;;;16.20;99.90;;;;;;5018342;28;20456;-70
2022/10/04 17:47:12;;;;;;;5.50;3.50;;;16.10;99.90;;;;;;5018610;28;20451;-71
2022/10/04 17:55:46;;;;;;;7.00;3.53;;;16.00;99.90;;;;;;5018664;28;20543;-71
2022/10/04 17:58:17;;;;;;;6.50;3.70;;;16.00;99.90;;;;;;5018726;28;20472;-71
2022/10/04 18:00:57;;;;;;;7.33;3.97;;;16.00;99.90;;;;;;5018608;28;20455;-70
2022/10/04 18:03:31;;;;;;;4.23;2.90;;;16.00;99.90;;;;;;5018552;28;20894;-70
2022/10/04 18:06:02;;;;;;;7.60;3.60;;;15.90;99.90;;;;;;5018339;28;20441;-70
2022/10/04 18:08:45;;;;;;;7.10;4.50;;;15.90;99.90;;;;;;5017942;28;20545;-69
2022/10/04 18:11:22;;;;;;;7.07;4.07;;;15.80;99.90;;;;;;5018287;28;20498;-69
2022/10/04 18:13:56;;;;;;;9.20;3.67;;;15.70;99.90;;;;;;5017702;28;20979;-70
2022/10/04 18:16:29;;;;;;;7.57;3.20;;;15.80;99.90;;;;;;5017989;28;20551;-69
2022/10/04 18:18:57;;;;;;;6.67;4.70;;;15.70;99.90;;;;;;5018051;28;20448;-70
2022/10/04 18:21:27;;;;;;;5.40;3.70;;;15.70;99.90;;;;;;5017868;28;20789;-70
2022/10/04 18:23:58;;;;;;;5.30;3.03;;;15.70;99.90;;;;;;5017574;28;20445;-70
2022/10/04 18:26:28;;;;;;;10.90;3.40;;;15.70;99.90;;;;;;5016435;28;20438;-70
2022/10/04 18:28:57;;;;;;;7.47;4.07;;;15.70;99.90;;;;;;5017745;28;20444;-69
2022/10/04 18:31:30;;;;;;;5.70;3.80;;;15.70;99.90;;;;;;5017893;28;20756;-70
2022/10/04 18:34:01;;;;;;;9.10;4.00;;;15.60;99.90;;;;;;5017948;28;20477;-70
2022/10/04 18:36:30;;;;;;;7.50;3.20;;;15.60;99.90;;;;;;5017775;28;20465;-70
2022/10/04 18:39:16;;;;;;;8.07;3.83;;;15.60;99.90;;;;;;5017312;28;20461;-71
2022/10/04 18:41:53;;;;;;;4.70;3.20;;;15.50;99.90;;;;;;5017916;28;20441;-70
2022/10/04 18:44:24;;;;;;;10.30;4.97;;;15.50;99.90;;;;;;5017366;28;20528;-70
2022/10/04 18:46:56;;;;;;;5.93;3.93;;;15.50;99.90;;;;;;5017119;28;20469;-70
2022/10/04 18:49:25;;;;;;;7.53;3.80;;;15.50;99.90;;;;;;5017219;28;20977;-70
2022/10/04 18:52:20;;;;;;;4.60;3.10;;;15.40;99.90;;;;;;5017009;28;20492;-71
2022/10/04 18:54:55;;;;;;;5.40;3.93;;;15.40;99.90;;;;;;5017485;28;20978;-70
2022/10/04 19:01:58;;;;;;;8.13;3.80;;;15.40;99.90;;;;;;5017077;28;20464;-70
2022/10/04 19:03:18;;;;;;;7.43;3.80;;;15.30;99.90;;;;;;5017478;28;20498;-71
2022/10/04 19:05:53;;;;;;;8.27;4.67;;;15.30;99.90;;;;;;5017453;28;20441;-73
2022/10/04 19:08:31;;;;;;;8.03;4.90;;;15.20;99.90;;;;;;5017185;28;20896;-67
2022/10/04 19:11:03;;;;;;;12.33;4.37;;;15.20;99.90;;;;;;5017150;28;20455;-67
2022/10/04 19:13:43;;;;;;;6.50;3.53;;;15.20;99.90;;;;;;5016737;28;20489;-67
2022/10/04 19:16:19;;;;;;;5.33;4.33;;;15.20;99.90;;;;;;5017254;28;20496;-66
2022/10/04 19:19:01;;;;;;;11.73;4.87;;;15.20;99.90;;;;;;5017102;28;20444;-67
2022/10/04 19:21:39;;;;;;;5.10;4.20;;;15.10;99.90;;;;;;5016924;28;20445;-67
2022/10/04 19:24:38;;;;;;;5.60;4.23;;;15.10;99.90;;;;;;5016855;28;20456;-67
2022/10/04 19:27:15;;;;;;;7.63;4.53;;;15.10;99.90;;;;;;5010014;28;20470;-67
2022/10/04 19:29:59;;;;;;;7.53;4.30;;;15.00;99.90;;;;;;5016694;28;20548;-67
2022/10/04 19:32:35;;;;;;;8.27;4.03;;;15.00;99.90;;;;;;5016650;28;20555;-68
2022/10/04 19:35:14;;;;;;;7.10;4.03;;;15.00;99.90;;;;;;5017368;28;20528;-67
2022/10/04 19:37:55;;;;;;;5.80;3.70;;;15.00;99.90;;;;;;5017188;28;20522;-67
2022/10/04 19:40:31;;;;;;;4.40;4.00;;;14.90;99.90;;;;;;5017265;28;20441;-67
2022/10/04 21:51:02;;;;;;;6.80;3.80;;;13.70;99.90;;;;;;4992166;28;20523;-66
2022/10/04 21:53:29;;;;;;;7.30;4.10;;;13.70;99.90;;;;;;5014745;28;20499;-66
2022/10/04 21:55:56;;;;;;;6.17;4.40;;;13.70;99.90;;;;;;5014587;28;20539;-67
2022/10/04 21:58:23;;;;;;;6.97;4.30;;;13.60;99.90;;;;;;5014486;28;20504;-66
2022/10/04 22:00:50;;;;;;;6.30;4.20;;;13.60;99.90;;;;;;5014871;28;20457;-66
2022/10/04 22:03:17;;;;;;;6.50;4.30;;;13.60;99.90;;;;;;5014527;28;20476;-66
2022/10/04 22:05:44;;;;;;;4.63;3.70;;;13.60;99.90;;;;;;5014539;28;20461;-66
2022/10/04 22:08:12;;;;;;;4.93;4.10;;;13.60;99.90;;;;;;5014573;28;20909;-68
2022/10/04 22:10:39;;;;;;;7.60;4.33;;;13.50;99.90;;;;;;5014770;28;20457;-67
2022/10/04 22:13:06;;;;;;;10.63;4.70;;;13.50;99.90;;;;;;5014714;28;20519;-67
2022/10/04 22:15:33;;;;;;;7.73;4.30;;;13.50;99.90;;;;;;5014723;28;20853;-68
2022/10/04 22:18:00;;;;;;;4.63;3.93;;;13.50;99.90;;;;;;5013985;28;20480;-66
2022/10/04 22:20:27;;;;;;;9.23;4.60;;;13.50;99.90;;;;;;5014847;28;20931;-67
2022/10/04 22:22:56;;;;;;;5.30;4.00;;;13.50;99.90;;;;;;5017550;28;20469;-66
2022/10/04 22:25:26;;;;;;;5.20;4.30;;;13.40;99.90;;;;;;5018172;28;20511;-67
2022/10/04 22:33:45;;;;;;;8.03;4.20;;;13.40;99.90;;;;;;5017959;28;20858;-65
2022/10/04 22:36:15;;;;;;;4.83;3.50;;;13.40;99.90;;;;;;5017699;28;20774;-65
2022/10/04 22:38:45;;;;;;;6.60;4.30;;;13.40;99.90;;;;;;5017852;28;20449;-65
2022/10/04 22:54:45;;;;;;;7.87;3.77;;;13.20;99.90;;;;;;4995849;28;21401;-66
2022/10/04 22:57:13;;;;;;;4.97;3.93;;;13.20;99.90;;;;;;5016747;28;20465;-67
2022/10/04 22:59:43;;;;;;;3.87;3.17;;;13.20;99.90;;;;;;5017318;28;20535;-66
2022/10/04 23:02:14;;;;;;;6.00;3.37;;;13.20;99.90;;;;;;5016983;28;20514;-66
2022/10/04 23:04:44;;;;;;;4.70;3.70;;;13.20;99.90;;;;;;5016665;28;20902;-66
2022/10/04 23:07:11;;;;;;;6.30;4.47;;;13.20;99.90;;;;;;5016873;28;20543;-66
2022/10/04 23:09:38;;;;;;;5.77;3.67;;;13.20;99.90;;;;;;5016970;28;20469;-66
2022/10/04 23:12:08;;;;;;;6.67;3.90;;;13.20;99.90;;;;;;5016925;28;20877;-66
2022/10/04 23:14:36;;;;;;;11.33;3.60;;;13.20;99.90;;;;;;5016378;28;20441;-66
2022/10/04 23:17:17;;;;;;;5.67;3.10;;;13.20;99.90;;;;;;5016622;28;20568;-66
2022/10/04 23:19:44;;;;;;;8.43;3.47;;;13.10;99.90;;;;;;5016330;28;20522;-66
2022/10/04 23:22:17;;;;;;;4.43;3.43;;;13.10;99.90;;;;;;5016258;28;20465;-66
2022/10/04 23:24:44;;;;;;;6.40;3.80;;;13.10;99.90;;;;;;5016272;28;20449;-66
2022/10/04 23:27:17;;;;;;;6.33;3.50;;;13.10;99.90;;;;;;5016067;28;20456;-66
2022/10/04 23:29:46;;;;;;;6.67;3.60;;;13.00;99.90;;;;;;5016496;28;20452;-66
2022/10/04 23:32:15;;;;;;;4.30;3.00;;;13.00;99.90;;;;;;5016359;28;20488;-66
2022/10/04 23:34:45;;;;;;;3.93;3.20;;;13.00;99.90;;;;;;5016379;28;20456;-66
2022/10/04 23:37:16;;;;;;;5.13;3.70;;;13.00;99.90;;;;;;5016073;28;20492;-66
2022/10/04 23:39:44;;;;;;;12.03;3.37;;;13.00;99.90;;;;;;5016817;28;20481;-66
2022/10/04 23:42:18;;;;;;;5.20;3.30;;;13.00;99.90;;;;;;5016731;28;20544;-66
2022/10/04 23:44:48;;;;;;;5.20;3.13;;;13.00;99.90;;;;;;5016095;28;20480;-66
2022/10/04 23:47:18;;;;;;;5.00;3.40;;;12.90;99.90;;;;;;5016187;28;20925;-67
2022/10/04 23:49:47;;;;;;;4.80;3.60;;;12.90;99.90;;;;;;5016074;28;20441;-67
2022/10/04 23:52:20;;;;;;;6.40;3.77;;;12.90;99.90;;;;;;5016066;28;20837;-67
2022/10/04 23:54:48;;;;;;;5.37;3.37;;;12.80;99.90;;;;;;5015524;28;20441;-67
2022/10/04 23:57:22;;;;;;;5.30;3.60;;;12.90;99.90;;;;;;5015611;28;20957;-67
2022/10/04 23:59:49;;;;;;;5.87;3.60;;;12.90;99.90;;;;;;5015914;28;20454;-66
